sensor_id;sensor_type;location;lat;lon;timestamp;pressure;altitude;pressure_sealevel;temperature;humidity
62103;BME280;48077;48.104;11.702;2022-07-21T00:00:58;95695.16;;;20.76;66.03
62103;BME280;48077;48.104;11.702;2022-07-21T00:03:22;95684.81;;;20.59;66.16
62103;BME280;48077;48.104;11.702;2022-07-21T00:05:48;95835.47;;;21.46;67.42
62103;BME280;48077;48.104;11.702;2022-07-21T00:08:12;95700.94;;;20.69;66.88
62103;BME280;48077;48.104;11.702;2022-07-21T00:10:37;95701.44;;;20.71;67.66
62103;BME280;48077;48.104;11.702;2022-07-21T00:13:00;95753.69;;;20.96;69.04
62103;BME280;48077;48.104;11.702;2022-07-21T00:15:25;95758.00;;;20.97;69.10
62103;BME280;48077;48.104;11.702;2022-07-21T00:17:50;95706.22;;;20.60;69.30
62103;BME280;48077;48.104;11.702;2022-07-21T00:20:16;95693.28;;;20.52;69.65
62103;BME280;48077;48.104;11.702;2022-07-21T00:22:41;95816.09;;;21.34;70.20
62103;BME280;48077;48.104;11.702;2022-07-21T00:25:08;95747.91;;;20.84;70.49
62103;BME280;48077;48.104;11.702;2022-07-21T00:27:32;95750.63;;;20.84;70.10
62103;BME280;48077;48.104;11.702;2022-07-21T00:29:56;95705.38;;;20.60;69.91
62103;BME280;48077;48.104;11.702;2022-07-21T00:32:19;95704.81;;;20.63;69.34
62103;BME280;48077;48.104;11.702;2022-07-21T00:34:44;95761.13;;;20.85;69.20
62103;BME280;48077;48.104;11.702;2022-07-21T00:37:08;95770.03;;;20.91;69.49
62103;BME280;48077;48.104;11.702;2022-07-21T00:39:31;95725.06;;;20.41;69.95
62103;BME280;48077;48.104;11.702;2022-07-21T00:41:55;95733.97;;;20.47;70.47
62103;BME280;48077;48.104;11.702;2022-07-21T00:44:26;95796.09;;;20.87;70.09
62103;BME280;48077;48.104;11.702;2022-07-21T00:46:50;95742.03;;;20.52;69.52
62103;BME280;48077;48.104;11.702;2022-07-21T00:49:14;95722.53;;;20.31;69.51
62103;BME280;48077;48.104;11.702;2022-07-21T00:51:38;95776.94;;;20.59;69.51
62103;BME280;48077;48.104;11.702;2022-07-21T00:54:02;95722.91;;;20.19;69.63
62103;BME280;48077;48.104;11.702;2022-07-21T00:56:25;95771.44;;;20.40;69.94
62103;BME280;48077;48.104;11.702;2022-07-21T00:58:49;95796.75;;;20.54;70.15
62103;BME280;48077;48.104;11.702;2022-07-21T01:01:12;95802.72;;;20.51;69.99
62103;BME280;48077;48.104;11.702;2022-07-21T01:03:36;95725.31;;;19.97;69.91
62103;BME280;48077;48.104;11.702;2022-07-21T01:06:00;95715.34;;;19.92;70.06
62103;BME280;48077;48.104;11.702;2022-07-21T01:08:26;95782.09;;;20.31;70.20
62103;BME280;48077;48.104;11.702;2022-07-21T01:10:50;95730.19;;;20.00;70.14
62103;BME280;48077;48.104;11.702;2022-07-21T01:13:14;95725.84;;;19.99;70.54
62103;BME280;48077;48.104;11.702;2022-07-21T01:15:37;95730.72;;;19.97;70.32
62103;BME280;48077;48.104;11.702;2022-07-21T01:18:01;95775.69;;;20.22;70.78
62103;BME280;48077;48.104;11.702;2022-07-21T01:20:25;95707.91;;;19.79;70.63
62103;BME280;48077;48.104;11.702;2022-07-21T01:22:51;95789.47;;;20.26;70.88
62103;BME280;48077;48.104;11.702;2022-07-21T01:25:16;95761.47;;;20.06;70.99
62103;BME280;48077;48.104;11.702;2022-07-21T01:27:40;95813.66;;;20.41;71.15
62103;BME280;48077;48.104;11.702;2022-07-21T01:30:05;95806.47;;;20.31;71.55
62103;BME280;48077;48.104;11.702;2022-07-21T01:32:32;95779.81;;;20.14;71.71
62103;BME280;48077;48.104;11.702;2022-07-21T01:34:55;95838.00;;;20.46;71.94
62103;BME280;48077;48.104;11.702;2022-07-21T01:37:23;95803.56;;;20.22;72.32
62103;BME280;48077;48.104;11.702;2022-07-21T01:39:47;95802.53;;;20.18;72.78
62103;BME280;48077;48.104;11.702;2022-07-21T01:42:32;95806.91;;;20.14;73.02
62103;BME280;48077;48.104;11.702;2022-07-21T01:44:55;95835.97;;;20.33;73.03
62103;BME280;48077;48.104;11.702;2022-07-21T01:47:20;95781.41;;;19.91;73.50
62103;BME280;48077;48.104;11.702;2022-07-21T01:49:46;95838.75;;;20.22;73.79
62103;BME280;48077;48.104;11.702;2022-07-21T01:52:09;95757.72;;;19.78;73.75
62103;BME280;48077;48.104;11.702;2022-07-21T01:54:33;95773.88;;;19.83;73.92
62103;BME280;48077;48.104;11.702;2022-07-21T01:56:56;95787.72;;;19.81;73.80
62103;BME280;48077;48.104;11.702;2022-07-21T01:59:19;95805.22;;;19.89;74.52
62103;BME280;48077;48.104;11.702;2022-07-21T02:01:43;95793.41;;;19.80;74.39
62103;BME280;48077;48.104;11.702;2022-07-21T02:04:06;95772.16;;;19.63;74.70
62103;BME280;48077;48.104;11.702;2022-07-21T02:06:30;95793.44;;;19.75;74.83
62103;BME280;48077;48.104;11.702;2022-07-21T02:08:53;95780.53;;;19.61;74.84
62103;BME280;48077;48.104;11.702;2022-07-21T02:11:17;95789.41;;;19.72;74.89
62103;BME280;48077;48.104;11.702;2022-07-21T02:13:41;95816.38;;;19.83;74.81
62103;BME280;48077;48.104;11.702;2022-07-21T02:16:05;95790.50;;;19.66;74.79
62103;BME280;48077;48.104;11.702;2022-07-21T02:18:29;95804.28;;;19.70;75.09
62103;BME280;48077;48.104;11.702;2022-07-21T02:20:52;95828.25;;;19.87;75.13
62103;BME280;48077;48.104;11.702;2022-07-21T02:23:17;95797.63;;;19.57;75.15
62103;BME280;48077;48.104;11.702;2022-07-21T02:25:41;95804.41;;;19.54;75.25
62103;BME280;48077;48.104;11.702;2022-07-21T02:28:04;95777.50;;;19.34;75.40
62103;BME280;48077;48.104;11.702;2022-07-21T02:30:28;95807.16;;;19.49;75.45
62103;BME280;48077;48.104;11.702;2022-07-21T02:32:51;95795.88;;;19.37;75.79
62103;BME280;48077;48.104;11.702;2022-07-21T02:35:14;95806.41;;;19.38;75.99
62103;BME280;48077;48.104;11.702;2022-07-21T02:37:38;95832.81;;;19.57;75.77
62103;BME280;48077;48.104;11.702;2022-07-21T02:40:02;95856.78;;;19.74;75.65
62103;BME280;48077;48.104;11.702;2022-07-21T02:42:25;95833.34;;;19.54;75.83
62103;BME280;48077;48.104;11.702;2022-07-21T02:44:48;95814.47;;;19.44;75.85
62103;BME280;48077;48.104;11.702;2022-07-21T02:47:12;95815.06;;;19.40;76.04
62103;BME280;48077;48.104;11.702;2022-07-21T02:49:35;95809.13;;;19.38;76.37
62103;BME280;48077;48.104;11.702;2022-07-21T02:51:59;95824.50;;;19.43;76.38
62103;BME280;48077;48.104;11.702;2022-07-21T02:54:22;95798.91;;;19.30;76.44
62103;BME280;48077;48.104;11.702;2022-07-21T02:56:46;95816.88;;;19.50;76.51
62103;BME280;48077;48.104;11.702;2022-07-21T02:59:09;95835.44;;;19.62;76.70
62103;BME280;48077;48.104;11.702;2022-07-21T03:01:33;95817.41;;;19.52;76.66
62103;BME280;48077;48.104;11.702;2022-07-21T03:03:56;95815.25;;;19.54;77.05
62103;BME280;48077;48.104;11.702;2022-07-21T03:06:19;95813.09;;;19.51;77.15
62103;BME280;48077;48.104;11.702;2022-07-21T03:08:43;95783.78;;;19.24;77.28
62103;BME280;48077;48.104;11.702;2022-07-21T03:11:07;95814.72;;;19.47;77.57
62103;BME280;48077;48.104;11.702;2022-07-21T03:13:30;95806.47;;;19.33;77.61
62103;BME280;48077;48.104;11.702;2022-07-21T03:15:54;95816.97;;;19.40;77.67
62103;BME280;48077;48.104;11.702;2022-07-21T03:18:17;95800.53;;;19.31;77.58
62103;BME280;48077;48.104;11.702;2022-07-21T03:20:43;95844.16;;;19.59;77.48
62103;BME280;48077;48.104;11.702;2022-07-21T03:23:07;95811.81;;;19.38;77.75
62103;BME280;48077;48.104;11.702;2022-07-21T03:25:31;95850.34;;;19.65;77.74
62103;BME280;48077;48.104;11.702;2022-07-21T03:27:54;95802.97;;;19.28;77.91
62103;BME280;48077;48.104;11.702;2022-07-21T03:30:18;95851.75;;;19.57;78.25
62103;BME280;48077;48.104;11.702;2022-07-21T03:32:41;95781.22;;;19.04;78.81
62103;BME280;48077;48.104;11.702;2022-07-21T03:35:06;95856.38;;;19.51;78.95
62103;BME280;48077;48.104;11.702;2022-07-21T03:37:30;95808.19;;;19.14;79.07
62103;BME280;48077;48.104;11.702;2022-07-21T03:39:54;95843.50;;;19.33;79.42
62103;BME280;48077;48.104;11.702;2022-07-21T03:42:18;95847.25;;;19.37;79.52
62103;BME280;48077;48.104;11.702;2022-07-21T03:44:41;95806.88;;;19.06;79.68
62103;BME280;48077;48.104;11.702;2022-07-21T03:47:05;95828.97;;;19.24;79.74
62103;BME280;48077;48.104;11.702;2022-07-21T03:49:28;95791.78;;;19.00;80.28
62103;BME280;48077;48.104;11.702;2022-07-21T03:51:51;95856.44;;;19.41;80.08
62103;BME280;48077;48.104;11.702;2022-07-21T03:54:15;95733.00;;;18.66;80.21
62103;BME280;48077;48.104;11.702;2022-07-21T03:56:38;95812.53;;;19.15;80.15
62103;BME280;48077;48.104;11.702;2022-07-21T03:59:02;95849.63;;;19.49;80.28
62103;BME280;48077;48.104;11.702;2022-07-21T04:01:25;95775.56;;;19.00;79.60
62103;BME280;48077;48.104;11.702;2022-07-21T04:03:48;95769.34;;;18.99;79.56
62103;BME280;48077;48.104;11.702;2022-07-21T04:06:12;95825.06;;;19.40;79.44
62103;BME280;48077;48.104;11.702;2022-07-21T04:08:36;95815.84;;;19.41;79.53
62103;BME280;48077;48.104;11.702;2022-07-21T04:11:00;95891.84;;;19.89;79.71
62103;BME280;48077;48.104;11.702;2022-07-21T04:13:23;95870.00;;;19.80;79.47
62103;BME280;48077;48.104;11.702;2022-07-21T04:15:47;95876.19;;;19.86;79.49
62103;BME280;48077;48.104;11.702;2022-07-21T04:18:10;95884.50;;;19.95;79.36
62103;BME280;48077;48.104;11.702;2022-07-21T04:20:34;95871.53;;;19.92;79.22
62103;BME280;48077;48.104;11.702;2022-07-21T04:22:57;95880.47;;;19.92;79.40
62103;BME280;48077;48.104;11.702;2022-07-21T04:25:21;95879.63;;;19.97;79.56
62103;BME280;48077;48.104;11.702;2022-07-21T04:27:46;95892.53;;;20.05;79.77
62103;BME280;48077;48.104;11.702;2022-07-21T04:30:12;95894.44;;;20.05;79.74
62103;BME280;48077;48.104;11.702;2022-07-21T04:32:36;95871.03;;;19.90;79.87
62103;BME280;48077;48.104;11.702;2022-07-21T04:34:59;95904.97;;;20.06;79.87
62103;BME280;48077;48.104;11.702;2022-07-21T04:37:23;95856.22;;;19.77;80.02
62103;BME280;48077;48.104;11.702;2022-07-21T04:39:46;95880.75;;;19.91;79.84
62103;BME280;48077;48.104;11.702;2022-07-21T04:42:10;95891.84;;;19.89;80.21
62103;BME280;48077;48.104;11.702;2022-07-21T04:44:33;95912.81;;;20.08;80.12
62103;BME280;48077;48.104;11.702;2022-07-21T04:46:57;95915.00;;;20.06;79.87
62103;BME280;48077;48.104;11.702;2022-07-21T04:49:22;95922.00;;;20.12;79.77
62103;BME280;48077;48.104;11.702;2022-07-21T04:51:45;95918.25;;;20.08;79.94
62103;BME280;48077;48.104;11.702;2022-07-21T04:54:09;95914.19;;;20.05;79.96
62103;BME280;48077;48.104;11.702;2022-07-21T04:56:32;95895.06;;;19.91;79.98
62103;BME280;48077;48.104;11.702;2022-07-21T04:58:58;95925.56;;;20.07;80.26
62103;BME280;48077;48.104;11.702;2022-07-21T05:01:22;95936.06;;;20.14;80.32
62103;BME280;48077;48.104;11.702;2022-07-21T05:03:46;95922.00;;;20.12;80.38
62103;BME280;48077;48.104;11.702;2022-07-21T05:06:12;95914.19;;;20.05;79.88
62103;BME280;48077;48.104;11.702;2022-07-21T05:08:36;95885.09;;;19.92;79.83
62103;BME280;48077;48.104;11.702;2022-07-21T05:10:59;95933.28;;;20.24;79.82
62103;BME280;48077;48.104;11.702;2022-07-21T05:13:23;95913.94;;;20.07;80.19
62103;BME280;48077;48.104;11.702;2022-07-21T05:15:46;95874.28;;;19.87;79.58
62103;BME280;48077;48.104;11.702;2022-07-21T05:18:09;95866.47;;;19.80;79.31
62103;BME280;48077;48.104;11.702;2022-07-21T05:20:33;95921.47;;;20.10;79.43
62103;BME280;48077;48.104;11.702;2022-07-21T05:22:56;95938.78;;;20.14;79.55
62103;BME280;48077;48.104;11.702;2022-07-21T05:25:20;95951.97;;;20.20;79.27
62103;BME280;48077;48.104;11.702;2022-07-21T05:27:43;95965.22;;;20.27;79.38
62103;BME280;48077;48.104;11.702;2022-07-21T05:30:07;95946.63;;;20.15;79.48
62103;BME280;48077;48.104;11.702;2022-07-21T05:32:30;95959.03;;;20.21;79.16
62103;BME280;48077;48.104;11.702;2022-07-21T05:34:54;95944.44;;;20.17;78.96
62103;BME280;48077;48.104;11.702;2022-07-21T05:37:17;95953.81;;;20.30;78.82
62103;BME280;48077;48.104;11.702;2022-07-21T05:39:40;95956.53;;;20.30;78.81
62103;BME280;48077;48.104;11.702;2022-07-21T05:42:04;95943.84;;;20.26;78.60
62103;BME280;48077;48.104;11.702;2022-07-21T05:44:27;95946.22;;;20.32;78.19
62103;BME280;48077;48.104;11.702;2022-07-21T05:46:51;95958.53;;;20.49;78.31
62103;BME280;48077;48.104;11.702;2022-07-21T05:49:14;95954.16;;;20.53;77.76
62103;BME280;48077;48.104;11.702;2022-07-21T05:51:37;95960.25;;;20.69;77.52
62103;BME280;48077;48.104;11.702;2022-07-21T05:54:01;95955.34;;;20.76;76.77
62103;BME280;48077;48.104;11.702;2022-07-21T05:56:24;95944.78;;;20.74;76.52
62103;BME280;48077;48.104;11.702;2022-07-21T05:58:47;95962.84;;;20.84;76.07
62103;BME280;48077;48.104;11.702;2022-07-21T06:01:11;95964.69;;;20.89;75.69
62103;BME280;48077;48.104;11.702;2022-07-21T06:03:42;95944.78;;;20.74;75.49
62103;BME280;48077;48.104;11.702;2022-07-21T06:06:06;95956.28;;;20.90;75.11
62103;BME280;48077;48.104;11.702;2022-07-21T06:08:29;95963.25;;;20.96;74.66
62103;BME280;48077;48.104;11.702;2022-07-21T06:10:53;95969.56;;;20.92;74.22
62103;BME280;48077;48.104;11.702;2022-07-21T06:13:16;95979.19;;;21.03;74.58
62103;BME280;48077;48.104;11.702;2022-07-21T06:15:39;95961.47;;;20.87;74.11
62103;BME280;48077;48.104;11.702;2022-07-21T06:18:03;95971.06;;;21.03;74.19
62103;BME280;48077;48.104;11.702;2022-07-21T06:20:26;95987.75;;;21.15;73.40
62103;BME280;48077;48.104;11.702;2022-07-21T06:22:50;95989.00;;;21.23;73.80
62103;BME280;48077;48.104;11.702;2022-07-21T06:25:13;95993.81;;;21.31;74.13
62103;BME280;48077;48.104;11.702;2022-07-21T06:27:36;95971.34;;;21.26;73.64
62103;BME280;48077;48.104;11.702;2022-07-21T06:30:00;95981.00;;;21.13;72.65
62103;BME280;48077;48.104;11.702;2022-07-21T06:32:24;95979.44;;;21.07;72.85
62103;BME280;48077;48.104;11.702;2022-07-21T06:34:47;95959.03;;;20.85;73.47
62103;BME280;48077;48.104;11.702;2022-07-21T06:37:11;95997.72;;;20.96;74.23
62103;BME280;48077;48.104;11.702;2022-07-21T06:39:34;95950.00;;;20.66;74.33
62103;BME280;48077;48.104;11.702;2022-07-21T06:42:02;95955.09;;;20.72;74.14
62103;BME280;48077;48.104;11.702;2022-07-21T06:44:26;95977.44;;;20.88;74.23
62103;BME280;48077;48.104;11.702;2022-07-21T06:46:50;95964.34;;;20.71;74.22
62103;BME280;48077;48.104;11.702;2022-07-21T06:49:13;95962.81;;;20.55;75.11
62103;BME280;48077;48.104;11.702;2022-07-21T06:51:37;96002.75;;;20.78;75.20
62103;BME280;48077;48.104;11.702;2022-07-21T06:54:00;95976.59;;;20.64;75.10
62103;BME280;48077;48.104;11.702;2022-07-21T06:56:24;95995.41;;;20.79;75.02
62103;BME280;48077;48.104;11.702;2022-07-21T06:58:47;96001.34;;;20.81;74.92
62103;BME280;48077;48.104;11.702;2022-07-21T07:01:11;95993.56;;;20.74;75.38
62103;BME280;48077;48.104;11.702;2022-07-21T07:03:36;95982.47;;;20.71;75.50
62103;BME280;48077;48.104;11.702;2022-07-21T07:05:59;96001.06;;;20.82;75.73
62103;BME280;48077;48.104;11.702;2022-07-21T07:08:22;96024.50;;;20.97;75.94
62103;BME280;48077;48.104;11.702;2022-07-21T07:10:46;96000.47;;;20.91;76.07
62103;BME280;48077;48.104;11.702;2022-07-21T07:13:10;96011.13;;;21.06;75.48
62103;BME280;48077;48.104;11.702;2022-07-21T07:15:34;96000.78;;;21.13;74.79
62103;BME280;48077;48.104;11.702;2022-07-21T07:17:57;95972.13;;;21.02;74.24
62103;BME280;48077;48.104;11.702;2022-07-21T07:20:21;96008.19;;;21.32;74.21
62103;BME280;48077;48.104;11.702;2022-07-21T07:22:44;96008.34;;;21.40;73.52
62103;BME280;48077;48.104;11.702;2022-07-21T07:25:09;95970.34;;;21.16;73.11
62103;BME280;48077;48.104;11.702;2022-07-21T07:27:32;96015.50;;;21.31;73.93
62103;BME280;48077;48.104;11.702;2022-07-21T07:29:56;95977.56;;;21.02;74.64
62103;BME280;48077;48.104;11.702;2022-07-21T07:32:19;96009.31;;;21.26;74.46
62103;BME280;48077;48.104;11.702;2022-07-21T07:34:43;96014.63;;;21.36;74.25
62103;BME280;48077;48.104;11.702;2022-07-21T07:37:06;96011.63;;;21.37;74.24
62103;BME280;48077;48.104;11.702;2022-07-21T07:39:30;96019.38;;;21.49;73.41
62103;BME280;48077;48.104;11.702;2022-07-21T07:41:53;96006.84;;;21.53;73.44
62103;BME280;48077;48.104;11.702;2022-07-21T07:44:18;96006.72;;;21.63;72.95
62103;BME280;48077;48.104;11.702;2022-07-21T07:46:41;96035.81;;;21.82;72.17
62103;BME280;48077;48.104;11.702;2022-07-21T07:49:05;95991.16;;;21.50;72.29
62103;BME280;48077;48.104;11.702;2022-07-21T07:51:28;96016.28;;;21.61;72.12
62103;BME280;48077;48.104;11.702;2022-07-21T07:53:52;96035.44;;;21.70;72.28
62103;BME280;48077;48.104;11.702;2022-07-21T07:56:15;96022.91;;;21.50;71.50
62103;BME280;48077;48.104;11.702;2022-07-21T07:58:38;96043.94;;;21.63;71.41
62103;BME280;48077;48.104;11.702;2022-07-21T08:01:02;95992.25;;;21.25;70.89
62103;BME280;48077;48.104;11.702;2022-07-21T08:03:26;95995.34;;;21.37;71.08
62103;BME280;48077;48.104;11.702;2022-07-21T08:05:50;96034.47;;;21.60;70.10
62103;BME280;48077;48.104;11.702;2022-07-21T08:08:14;95997.09;;;21.28;70.17
62103;BME280;48077;48.104;11.702;2022-07-21T08:10:38;96032.44;;;21.47;70.92
62103;BME280;48077;48.104;11.702;2022-07-21T08:13:01;95989.22;;;21.27;71.40
62103;BME280;48077;48.104;11.702;2022-07-21T08:15:25;96044.72;;;21.63;71.68
62103;BME280;48077;48.104;11.702;2022-07-21T08:17:48;96034.13;;;21.67;70.88
62103;BME280;48077;48.104;11.702;2022-07-21T08:20:11;96025.13;;;21.67;70.85
62103;BME280;48077;48.104;11.702;2022-07-21T08:22:35;96034.84;;;21.73;70.58
62103;BME280;48077;48.104;11.702;2022-07-21T08:24:58;96013.91;;;21.54;69.37
62103;BME280;48077;48.104;11.702;2022-07-21T08:27:22;96014.97;;;21.58;69.56
62103;BME280;48077;48.104;11.702;2022-07-21T08:29:45;95983.59;;;21.47;69.35
62103;BME280;48077;48.104;11.702;2022-07-21T08:32:09;96029.00;;;21.85;69.30
62103;BME280;48077;48.104;11.702;2022-07-21T08:34:33;96045.38;;;21.98;69.19
62103;BME280;48077;48.104;11.702;2022-07-21T08:36:57;96027.09;;;21.85;68.89
62103;BME280;48077;48.104;11.702;2022-07-21T08:39:20;96042.81;;;21.88;69.22
62103;BME280;48077;48.104;11.702;2022-07-21T08:41:44;96053.66;;;21.88;69.61
62103;BME280;48077;48.104;11.702;2022-07-21T08:44:08;96034.94;;;21.87;69.67
62103;BME280;48077;48.104;11.702;2022-07-21T08:46:34;96031.88;;;21.93;69.91
62103;BME280;48077;48.104;11.702;2022-07-21T08:48:58;96037.00;;;21.95;70.34
62103;BME280;48077;48.104;11.702;2022-07-21T08:51:24;96034.06;;;21.91;69.72
62103;BME280;48077;48.104;11.702;2022-07-21T08:53:48;96050.06;;;21.93;70.25
62103;BME280;48077;48.104;11.702;2022-07-21T08:56:12;96017.06;;;21.61;69.56
62103;BME280;48077;48.104;11.702;2022-07-21T08:58:35;96052.16;;;21.77;69.99
62103;BME280;48077;48.104;11.702;2022-07-21T09:01:00;96024.53;;;21.51;70.57
62103;BME280;48077;48.104;11.702;2022-07-21T09:03:25;96027.91;;;21.37;70.83
62103;BME280;48077;48.104;11.702;2022-07-21T09:06:13;96039.00;;;21.41;71.26
62103;BME280;48077;48.104;11.702;2022-07-21T09:08:52;96055.25;;;21.41;71.42
62103;BME280;48077;48.104;11.702;2022-07-21T09:11:21;96070.16;;;21.49;71.93
62103;BME280;48077;48.104;11.702;2022-07-21T09:13:49;96056.06;;;21.47;71.77
62103;BME280;48077;48.104;11.702;2022-07-21T09:16:32;96060.91;;;21.50;72.22
62103;BME280;48077;48.104;11.702;2022-07-21T09:18:55;96049.31;;;21.39;72.00
62103;BME280;48077;48.104;11.702;2022-07-21T09:21:19;96063.31;;;21.51;71.77
62103;BME280;48077;48.104;11.702;2022-07-21T09:23:43;96026.41;;;21.26;71.41
62103;BME280;48077;48.104;11.702;2022-07-21T09:26:06;96041.78;;;21.36;71.95
62103;BME280;48077;48.104;11.702;2022-07-21T09:28:30;96042.84;;;21.35;71.90
62103;BME280;48077;48.104;11.702;2022-07-21T09:31:02;96004.88;;;21.11;71.97
62103;BME280;48077;48.104;11.702;2022-07-21T09:33:33;96057.13;;;21.46;72.58
62103;BME280;48077;48.104;11.702;2022-07-21T09:36:00;95992.69;;;21.08;72.62
62103;BME280;48077;48.104;11.702;2022-07-21T09:38:29;96049.03;;;21.40;73.24
62103;BME280;48077;48.104;11.702;2022-07-21T09:40:53;96022.94;;;21.20;73.31
62103;BME280;48077;48.104;11.702;2022-07-21T09:43:47;96056.66;;;21.38;73.67
62103;BME280;48077;48.104;11.702;2022-07-21T09:46:13;96021.16;;;21.11;73.82
62103;BME280;48077;48.104;11.702;2022-07-21T09:48:39;96065.66;;;21.34;74.12
62103;BME280;48077;48.104;11.702;2022-07-21T09:51:39;96079.78;;;21.31;74.15
62103;BME280;48077;48.104;11.702;2022-07-21T09:54:09;96070.59;;;21.27;75.05
62103;BME280;48077;48.104;11.702;2022-07-21T09:56:43;96071.19;;;21.23;75.01
62103;BME280;48077;48.104;11.702;2022-07-21T09:59:08;96026.28;;;20.83;74.96
62103;BME280;48077;48.104;11.702;2022-07-21T10:01:32;96039.53;;;20.90;75.11
62103;BME280;48077;48.104;11.702;2022-07-21T10:03:57;96090.09;;;21.05;75.41
62103;BME280;48077;48.104;11.702;2022-07-21T10:06:25;96079.56;;;20.98;75.50
62103;BME280;48077;48.104;11.702;2022-07-21T10:08:49;96087.72;;;20.93;76.20
62103;BME280;48077;48.104;11.702;2022-07-21T10:11:13;96075.91;;;20.84;76.41
62103;BME280;48077;48.104;11.702;2022-07-21T10:13:37;96093.50;;;20.86;77.04
62103;BME280;48077;48.104;11.702;2022-07-21T10:16:01;96090.59;;;20.77;77.28
62103;BME280;48077;48.104;11.702;2022-07-21T10:18:26;96091.41;;;20.73;78.33
62103;BME280;48077;48.104;11.702;2022-07-21T10:20:57;96090.66;;;20.67;79.55
62103;BME280;48077;48.104;11.702;2022-07-21T10:23:34;96089.88;;;20.61;80.29
62103;BME280;48077;48.104;11.702;2022-07-21T10:25:59;96093.47;;;20.47;81.21
62103;BME280;48077;48.104;11.702;2022-07-21T10:28:23;96098.38;;;20.45;82.45
62103;BME280;48077;48.104;11.702;2022-07-21T10:30:49;96097.91;;;20.32;83.85
62103;BME280;48077;48.104;11.702;2022-07-21T10:33:14;96098.00;;;20.17;85.17
62103;BME280;48077;48.104;11.702;2022-07-21T10:35:43;96096.22;;;19.92;86.59
62103;BME280;48077;48.104;11.702;2022-07-21T10:38:25;96097.06;;;19.82;87.91
62103;BME280;48077;48.104;11.702;2022-07-21T10:40:48;96094.38;;;19.67;89.71
62103;BME280;48077;48.104;11.702;2022-07-21T10:45:39;96112.22;;;19.68;91.71
62103;BME280;48077;48.104;11.702;2022-07-21T10:48:08;96091.72;;;19.56;91.98
62103;BME280;48077;48.104;11.702;2022-07-21T10:50:32;96108.44;;;19.64;92.67
62103;BME280;48077;48.104;11.702;2022-07-21T10:52:58;96094.94;;;19.58;93.09
62103;BME280;48077;48.104;11.702;2022-07-21T10:55:23;96100.91;;;19.60;93.84
62103;BME280;48077;48.104;11.702;2022-07-21T10:58:12;96111.97;;;19.64;93.73
62103;BME280;48077;48.104;11.702;2022-07-21T11:00:46;96092.28;;;19.48;94.20
62103;BME280;48077;48.104;11.702;2022-07-21T11:03:22;96105.22;;;19.67;94.39
62103;BME280;48077;48.104;11.702;2022-07-21T11:08:40;96104.34;;;19.87;94.07
62103;BME280;48077;48.104;11.702;2022-07-21T11:14:03;96091.38;;;19.84;94.56
62103;BME280;48077;48.104;11.702;2022-07-21T11:19:03;96095.09;;;19.98;94.49
62103;BME280;48077;48.104;11.702;2022-07-21T11:21:26;96096.13;;;20.07;94.55
62103;BME280;48077;48.104;11.702;2022-07-21T11:23:50;96090.72;;;20.07;94.67
62103;BME280;48077;48.104;11.702;2022-07-21T11:26:17;96087.44;;;20.10;92.47
62103;BME280;48077;48.104;11.702;2022-07-21T11:28:41;96091.47;;;20.18;92.74
62103;BME280;48077;48.104;11.702;2022-07-21T11:31:07;96071.75;;;20.07;91.38
62103;BME280;48077;48.104;11.702;2022-07-21T11:33:30;96070.91;;;20.12;91.32
62103;BME280;48077;48.104;11.702;2022-07-21T11:35:54;96077.91;;;20.23;91.44
62103;BME280;48077;48.104;11.702;2022-07-21T11:38:17;96064.38;;;20.18;91.25
62103;BME280;48077;48.104;11.702;2022-07-21T11:40:40;96087.53;;;20.39;90.55
62103;BME280;48077;48.104;11.702;2022-07-21T11:43:04;96068.88;;;20.38;90.65
62103;BME280;48077;48.104;11.702;2022-07-21T11:45:27;96043.25;;;20.25;90.95
62103;BME280;48077;48.104;11.702;2022-07-21T11:47:51;96075.06;;;20.43;90.13
62103;BME280;48077;48.104;11.702;2022-07-21T11:50:15;96064.78;;;20.40;90.33
62103;BME280;48077;48.104;11.702;2022-07-21T11:52:39;96074.25;;;20.48;90.49
62103;BME280;48077;48.104;11.702;2022-07-21T11:55:05;96081.19;;;20.65;89.51
62103;BME280;48077;48.104;11.702;2022-07-21T11:57:29;96069.81;;;20.57;88.38
62103;BME280;48077;48.104;11.702;2022-07-21T11:59:53;96068.47;;;20.60;87.41
62103;BME280;48077;48.104;11.702;2022-07-21T12:02:19;96051.44;;;20.49;86.69
62103;BME280;48077;48.104;11.702;2022-07-21T12:04:50;96077.66;;;20.64;86.81
62103;BME280;48077;48.104;11.702;2022-07-21T12:07:18;96070.03;;;20.71;87.83
62103;BME280;48077;48.104;11.702;2022-07-21T12:09:44;96072.66;;;20.81;88.01
62103;BME280;48077;48.104;11.702;2022-07-21T12:12:08;96057.72;;;20.84;87.95
62103;BME280;48077;48.104;11.702;2022-07-21T12:14:41;96071.66;;;21.01;87.30
62103;BME280;48077;48.104;11.702;2022-07-21T12:17:05;96068.38;;;21.05;85.62
62103;BME280;48077;48.104;11.702;2022-07-21T12:19:28;96055.00;;;20.84;86.13
62103;BME280;48077;48.104;11.702;2022-07-21T12:21:52;96063.41;;;20.88;85.52
62103;BME280;48077;48.104;11.702;2022-07-21T12:24:17;96053.34;;;20.88;85.73
62103;BME280;48077;48.104;11.702;2022-07-21T12:26:40;96068.16;;;21.01;86.00
62103;BME280;48077;48.104;11.702;2022-07-21T12:29:04;96061.13;;;21.00;85.38
62103;BME280;48077;48.104;11.702;2022-07-21T12:31:27;96050.31;;;20.95;85.37
62103;BME280;48077;48.104;11.702;2022-07-21T12:33:53;96055.56;;;21.10;85.11
62103;BME280;48077;48.104;11.702;2022-07-21T12:36:19;96069.81;;;21.26;84.11
62103;BME280;48077;48.104;11.702;2022-07-21T12:38:45;96066.75;;;21.33;83.89
62103;BME280;48077;48.104;11.702;2022-07-21T12:41:11;96066.47;;;21.34;83.27
62103;BME280;48077;48.104;11.702;2022-07-21T12:43:35;96046.78;;;21.23;84.43
62103;BME280;48077;48.104;11.702;2022-07-21T12:48:33;96064.34;;;21.31;82.77
62103;BME280;48077;48.104;11.702;2022-07-21T12:53:35;96061.81;;;21.40;81.94